Time;durP1;ratioP1;P1;durP2;ratioP2;P2;SDS_P1;SDS_P2;PMS_P1;PMS_P2;Temp;Humidity;BMP_temperature;BMP_pressure;BME280_temperature;BME280_humidity;BME280_pressure;Samples;Min_cycle;Max_cycle;Signal;HPM_P1;HPM_P2
2021/06/12 00:01:56;;;;;;;;;;;;;;;25.11;55.95;101117.63;5051409;28;1214;-74
2021/06/12 00:04:23;;;;;;;;;;;;;;;25.18;55.97;101116.34;5051207;28;896;-74
2021/06/12 00:06:48;;;;;;;;;;;;;;;25.15;56.11;101115.00;5051736;28;830;-73
2021/06/12 00:09:13;;;;;;;;;;;;;;;25.21;55.99;101111.06;5051609;28;915;-74
2021/06/12 00:11:39;;;;;;;;;;;;;;;25.16;55.87;101107.59;5044799;28;2104;-74
2021/06/12 00:14:04;;;;;;;;;;;;;;;25.21;55.52;101096.41;5047394;28;904;-74
2021/06/12 00:16:30;;;;;;;;;;;;;;;25.36;54.87;101107.06;5031575;28;1137;-74
2021/06/12 00:18:55;;;;;;;;;;;;;;;25.31;54.16;101102.50;5031195;28;1157;-72
2021/06/12 00:21:20;;;;;;;;;;;;;;;25.27;54.51;101104.28;5031609;28;1259;-71
2021/06/12 00:23:46;;;;;;;;;;;;;;;25.26;54.29;101093.56;5031412;28;888;-72
2021/06/12 00:26:11;;;;;;;;;;;;;;;25.06;54.96;101090.19;5031344;28;901;-71
2021/06/12 00:28:37;;;;;;;;;;;;;;;25.02;54.91;101093.88;5031304;28;880;-72
2021/06/12 00:31:03;;;;;;;;;;;;;;;25.08;54.67;101092.63;5030076;28;917;-72
2021/06/12 00:33:28;;;;;;;;;;;;;;;25.17;56.33;101090.69;5030733;28;1883;-74
2021/06/12 00:35:54;;;;;;;;;;;;;;;25.23;55.89;101092.25;5029965;28;1369;-73
2021/06/12 00:38:19;;;;;;;;;;;;;;;25.18;55.88;101094.28;5029765;28;1180;-73
2021/06/12 00:40:44;;;;;;;;;;;;;;;25.09;55.60;101094.22;5031031;28;939;-72
2021/06/12 00:43:10;;;;;;;;;;;;;;;25.19;54.41;101087.63;5030545;28;1322;-72
2021/06/12 00:45:35;;;;;;;;;;;;;;;25.25;55.20;101092.75;5031184;28;932;-75
2021/06/12 00:48:01;;;;;;;;;;;;;;;25.20;55.83;101086.53;5030798;28;943;-73
2021/06/12 00:50:28;;;;;;;;;;;;;;;25.25;54.49;101083.63;5029716;28;1187;-73
2021/06/12 00:52:54;;;;;;;;;;;;;;;25.19;55.69;101090.41;5030893;28;1862;-77
2021/06/12 00:55:19;;;;;;;;;;;;;;;25.11;54.93;101086.47;5031162;28;976;-75
2021/06/12 00:57:45;;;;;;;;;;;;;;;25.04;54.80;101083.38;5031104;28;1153;-75
2021/06/12 01:00:12;;;;;;;;;;;;;;;25.03;55.57;101095.50;5031011;28;933;-74
2021/06/12 01:02:38;;;;;;;;;;;;;;;25.14;55.84;101090.56;5030642;28;914;-74
2021/06/12 01:05:05;;;;;;;;;;;;;;;25.14;55.38;101093.31;5031019;28;896;-74
2021/06/12 01:07:31;;;;;;;;;;;;;;;25.17;55.62;101096.22;5030889;28;807;-74
2021/06/12 01:09:56;;;;;;;;;;;;;;;25.14;58.19;101105.13;5030678;28;907;-72
2021/06/12 01:12:25;;;;;;;;;;;;;;;25.16;56.40;101105.63;5030637;28;1870;-71
2021/06/12 01:14:58;;;;;;;;;;;;;;;25.29;56.03;101104.75;5030492;28;885;-73
2021/06/12 01:17:24;;;;;;;;;;;;;;;25.24;56.29;101106.84;5029916;28;1334;-73
2021/06/12 01:19:52;;;;;;;;;;;;;;;25.23;57.17;101106.03;5030866;28;906;-70
2021/06/12 01:22:25;;;;;;;;;;;;;;;25.28;57.73;101108.63;5030578;28;882;-72
2021/06/12 01:25:00;;;;;;;;;;;;;;;25.21;56.20;101105.53;5030318;28;1297;-72
2021/06/12 01:27:25;;;;;;;;;;;;;;;25.14;56.67;101107.09;5029168;28;1530;-72
2021/06/12 01:30:01;;;;;;;;;;;;;;;25.17;56.99;101103.69;5030481;28;904;-80
2021/06/12 01:32:26;;;;;;;;;;;;;;;25.27;55.92;101106.19;5030149;28;1902;-74
2021/06/12 01:34:52;;;;;;;;;;;;;;;25.30;56.07;101113.84;5029342;28;1182;-73
2021/06/12 01:37:18;;;;;;;;;;;;;;;25.33;56.19;101107.69;5030377;28;1182;-73
2021/06/12 01:39:43;;;;;;;;;;;;;;;25.22;56.38;101115.41;5030414;28;1101;-74
2021/06/12 01:42:09;;;;;;;;;;;;;;;25.21;56.00;101112.94;5030574;28;898;-74
2021/06/12 01:44:35;;;;;;;;;;;;;;;25.18;56.28;101113.59;5030489;28;897;-74
2021/06/12 01:47:01;;;;;;;;;;;;;;;25.24;57.73;101121.44;5029966;28;884;-74
2021/06/12 01:49:29;;;;;;;;;;;;;;;25.21;58.54;101108.28;5030454;28;858;-73
2021/06/12 01:51:55;;;;;;;;;;;;;;;25.24;57.48;101113.16;5030263;28;1949;-71
2021/06/12 01:54:21;;;;;;;;;;;;;;;25.25;56.12;101117.56;5028990;28;1304;-72
2021/06/12 01:56:47;;;;;;;;;;;;;;;25.19;56.59;101109.69;5030482;28;867;-75
2021/06/12 01:59:12;;;;;;;;;;;;;;;25.15;56.84;101106.75;5029170;28;1334;-74
2021/06/12 02:01:40;;;;;;;;;;;;;;;25.07;56.52;101121.28;5030050;28;899;-73
2021/06/12 02:04:05;;;;;;;;;;;;;;;25.03;56.51;101115.63;5030092;28;873;-73
2021/06/12 02:06:30;;;;;;;;;;;;;;;25.11;58.18;101122.28;5030129;28;832;-74
2021/06/12 02:08:56;;;;;;;;;;;;;;;25.07;56.57;101124.88;5030276;28;929;-74
2021/06/12 02:11:22;;;;;;;;;;;;;;;25.11;56.39;101119.53;5030073;28;1920;-74
2021/06/12 02:13:48;;;;;;;;;;;;;;;25.08;57.49;101125.69;5030146;28;888;-74
2021/06/12 02:16:15;;;;;;;;;;;;;;;25.22;56.54;101122.88;5031922;28;1176;-73
2021/06/12 02:18:43;;;;;;;;;;;;;;;25.13;56.91;101122.78;5033906;28;878;-74
2021/06/12 02:21:09;;;;;;;;;;;;;;;25.12;56.30;101132.19;5033729;28;871;-74
2021/06/12 02:23:34;;;;;;;;;;;;;;;25.04;56.33;101132.97;5033758;28;885;-74
2021/06/12 02:26:00;;;;;;;;;;;;;;;25.02;55.88;101127.75;5033341;28;907;-74
2021/06/12 02:28:29;;;;;;;;;;;;;;;25.00;55.98;101129.22;5033908;28;862;-74
2021/06/12 02:31:05;;;;;;;;;;;;;;;25.05;55.98;101137.34;5033414;28;858;-74
2021/06/12 02:33:31;;;;;;;;;;;;;;;25.03;55.84;101137.69;5033392;28;1910;-74
2021/06/12 02:35:59;;;;;;;;;;;;;;;25.06;56.81;101138.97;5033384;28;972;-71
2021/06/12 02:38:25;;;;;;;;;;;;;;;25.15;56.52;101150.84;5033505;28;850;-75
2021/06/12 02:40:51;;;;;;;;;;;;;;;25.08;56.41;101151.31;5033589;28;893;-75
2021/06/12 02:43:16;;;;;;;;;;;;;;;25.06;56.06;101152.75;5033069;28;854;-76
2021/06/12 02:45:41;;;;;;;;;;;;;;;25.02;56.39;101149.00;5033341;28;861;-75
2021/06/12 02:48:12;;;;;;;;;;;;;;;25.01;55.98;101152.88;5033188;28;961;-75
2021/06/12 02:50:37;;;;;;;;;;;;;;;25.00;56.55;101157.59;5033200;28;875;-75
2021/06/12 02:53:06;;;;;;;;;;;;;;;24.99;56.82;101146.88;5033154;28;1874;-75
2021/06/12 02:55:35;;;;;;;;;;;;;;;25.16;57.20;101149.75;5033280;28;1073;-77
2021/06/12 02:58:00;;;;;;;;;;;;;;;25.22;56.23;101161.47;5033471;28;953;-77
2021/06/12 03:00:26;;;;;;;;;;;;;;;25.22;58.40;101154.03;5034256;28;1702;-75
2021/06/12 03:02:52;;;;;;;;;;;;;;;25.09;56.17;101155.72;5042147;28;2064;-73
2021/06/12 03:05:19;;;;;;;;;;;;;;;25.00;56.58;101160.34;5045000;28;889;-74
2021/06/12 03:07:47;;;;;;;;;;;;;;;24.89;56.34;101165.31;5051377;28;906;-74
2021/06/12 03:10:13;;;;;;;;;;;;;;;24.82;56.18;101159.41;5052749;28;883;-74
2021/06/12 03:12:40;;;;;;;;;;;;;;;24.88;57.08;101157.34;5041099;28;1877;-74
2021/06/12 03:15:06;;;;;;;;;;;;;;;24.87;56.11;101155.69;5032591;28;945;-74
2021/06/12 03:17:31;;;;;;;;;;;;;;;24.86;56.47;101163.16;5032562;28;1149;-74
2021/06/12 03:19:57;;;;;;;;;;;;;;;24.92;56.13;101156.38;5032738;28;908;-72
2021/06/12 03:22:23;;;;;;;;;;;;;;;25.07;56.33;101159.88;5032670;28;877;-74
2021/06/12 03:24:48;;;;;;;;;;;;;;;25.16;56.15;101166.28;5032532;28;1352;-72
2021/06/12 03:27:14;;;;;;;;;;;;;;;24.96;56.96;101161.28;5032181;28;1153;-72
2021/06/12 03:29:40;;;;;;;;;;;;;;;25.03;57.80;101161.63;5031376;28;1183;-74
2021/06/12 03:32:06;;;;;;;;;;;;;;;24.97;56.10;101158.22;5032656;28;1914;-74
2021/06/12 03:34:32;;;;;;;;;;;;;;;24.94;56.20;101149.75;5032333;28;1058;-73
2021/06/12 03:36:58;;;;;;;;;;;;;;;25.08;57.91;101154.06;5032265;28;925;-72
2021/06/12 03:39:23;;;;;;;;;;;;;;;25.12;57.58;101149.53;5032230;28;818;-72
2021/06/12 03:41:49;;;;;;;;;;;;;;;25.14;56.16;101156.69;5032052;28;928;-71
2021/06/12 03:44:15;;;;;;;;;;;;;;;25.05;56.34;101153.88;5032311;28;877;-71
2021/06/12 03:46:41;;;;;;;;;;;;;;;24.99;57.93;101164.25;5032077;28;845;-74
2021/06/12 03:49:08;;;;;;;;;;;;;;;24.98;57.08;101153.53;5032036;28;897;-73
2021/06/12 03:51:33;;;;;;;;;;;;;;;25.03;56.08;101159.72;5031994;28;1941;-71
2021/06/12 03:53:59;;;;;;;;;;;;;;;25.01;58.31;101152.88;5032128;28;886;-71
2021/06/12 03:56:29;;;;;;;;;;;;;;;25.23;57.28;101161.19;5031347;28;871;-69
2021/06/12 03:58:54;;;;;;;;;;;;;;;25.17;57.38;101165.13;5032349;28;1999;-72
2021/06/12 04:01:20;;;;;;;;;;;;;;;25.21;58.66;101176.34;5045847;28;876;-70
2021/06/12 04:03:45;;;;;;;;;;;;;;;25.10;56.52;101173.06;5035681;28;1691;-68
2021/06/12 04:06:11;;;;;;;;;;;;;;;25.03;56.93;101164.41;5051809;28;854;-71
2021/06/12 04:08:37;;;;;;;;;;;;;;;25.05;56.78;101173.16;5033338;28;843;-67
2021/06/12 04:11:02;;;;;;;;;;;;;;;25.02;57.00;101169.09;5035208;28;1800;-71
2021/06/12 04:13:27;;;;;;;;;;;;;;;25.05;57.00;101176.75;5041993;28;2008;-71
2021/06/12 04:15:53;;;;;;;;;;;;;;;24.89;56.64;101179.06;5028450;28;1213;-71
2021/06/12 04:18:18;;;;;;;;;;;;;;;24.92;57.24;101180.38;5048457;28;969;-71
2021/06/12 04:20:44;;;;;;;;;;;;;;;24.99;56.44;101183.53;5050394;28;906;-71
2021/06/12 04:23:09;;;;;;;;;;;;;;;24.99;56.29;101182.69;5039805;28;898;-71
2021/06/12 04:25:34;;;;;;;;;;;;;;;24.96;55.79;101183.34;5028338;28;1217;-71
2021/06/12 04:28:00;;;;;;;;;;;;;;;25.04;57.87;101190.84;5029882;28;1032;-73
2021/06/12 04:30:25;;;;;;;;;;;;;;;25.16;57.36;101188.31;5044743;28;1331;-73
2021/06/12 04:32:50;;;;;;;;;;;;;;;25.22;57.05;101198.13;5050248;28;2005;-73
2021/06/12 04:35:16;;;;;;;;;;;;;;;25.24;57.43;101198.63;5048817;28;1302;-73
2021/06/12 04:37:42;;;;;;;;;;;;;;;25.31;57.28;101195.41;5049777;28;863;-73
2021/06/12 04:40:10;;;;;;;;;;;;;;;25.27;57.10;101194.41;5050227;28;910;-71
2021/06/12 04:42:36;;;;;;;;;;;;;;;25.22;58.06;101200.88;5050754;28;869;-72
2021/06/12 04:45:01;;;;;;;;;;;;;;;25.28;57.77;101196.06;5051073;28;923;-70
2021/06/12 04:47:26;;;;;;;;;;;;;;;25.26;57.81;101203.84;5049738;28;885;-69
2021/06/12 04:49:52;;;;;;;;;;;;;;;25.14;57.97;101201.59;5050400;28;849;-69
2021/06/12 04:52:17;;;;;;;;;;;;;;;25.02;58.44;101198.63;5050253;28;1883;-69
2021/06/12 04:54:42;;;;;;;;;;;;;;;24.99;58.10;101199.22;5050295;28;879;-69
2021/06/12 04:57:07;;;;;;;;;;;;;;;24.96;58.13;101197.91;5050172;28;890;-69
2021/06/12 04:59:33;;;;;;;;;;;;;;;24.97;57.94;101201.47;5050105;28;1162;-69
2021/06/12 05:01:58;;;;;;;;;;;;;;;24.94;57.98;101202.94;5049570;28;890;-69
2021/06/12 05:04:23;;;;;;;;;;;;;;;24.94;57.90;101205.69;5050252;28;902;-69
2021/06/12 05:06:49;;;;;;;;;;;;;;;24.96;57.94;101202.63;5050331;28;856;-69
2021/06/12 05:09:14;;;;;;;;;;;;;;;24.95;57.72;101204.56;5049909;28;814;-69
2021/06/12 05:11:39;;;;;;;;;;;;;;;24.97;58.00;101204.22;5049848;28;1882;-69
2021/06/12 05:14:05;;;;;;;;;;;;;;;25.00;58.08;101209.13;5049461;28;882;-69
2021/06/12 05:16:33;;;;;;;;;;;;;;;25.06;57.20;101216.16;5049959;28;1085;-69
2021/06/12 05:18:58;;;;;;;;;;;;;;;25.11;57.48;101216.84;5049995;28;872;-69
2021/06/12 05:21:23;;;;;;;;;;;;;;;25.07;57.59;101213.09;5049996;28;1276;-69
2021/06/12 05:23:49;;;;;;;;;;;;;;;25.01;58.38;101217.09;5049695;28;795;-69
2021/06/12 05:26:14;;;;;;;;;;;;;;;24.97;58.10;101218.00;5042030;28;1677;-69
2021/06/12 05:28:40;;;;;;;;;;;;;;;24.94;58.25;101222.22;5047233;28;1196;-69
2021/06/12 05:31:05;;;;;;;;;;;;;;;24.97;58.52;101224.38;5029501;28;1196;-69
2021/06/12 05:33:32;;;;;;;;;;;;;;;24.94;58.44;101221.41;5039709;28;1902;-70
2021/06/12 05:35:58;;;;;;;;;;;;;;;24.97;58.12;101221.59;5033661;28;852;-70
2021/06/12 05:38:25;;;;;;;;;;;;;;;24.94;58.28;101227.72;5029472;28;910;-70
2021/06/12 05:40:50;;;;;;;;;;;;;;;24.97;58.43;101226.28;5046182;28;1696;-70
2021/06/12 05:43:16;;;;;;;;;;;;;;;24.96;58.80;101225.47;5049516;28;844;-70
2021/06/12 05:45:42;;;;;;;;;;;;;;;25.10;57.70;101228.19;5049226;28;905;-66
2021/06/12 05:48:08;;;;;;;;;;;;;;;25.01;58.42;101224.53;5048270;28;899;-66
2021/06/12 05:50:33;;;;;;;;;;;;;;;24.98;58.34;101223.22;5047963;28;1793;-66
2021/06/12 05:52:58;;;;;;;;;;;;;;;24.97;58.91;101224.38;5038482;28;1890;-66
2021/06/12 05:55:24;;;;;;;;;;;;;;;24.97;58.91;101218.84;5047357;28;834;-66
2021/06/12 05:57:49;;;;;;;;;;;;;;;24.99;59.32;101224.88;5052998;28;925;-66
2021/06/12 06:00:15;;;;;;;;;;;;;;;25.00;59.23;101226.47;5038848;28;870;-66
2021/06/12 06:02:40;;;;;;;;;;;;;;;24.98;59.75;101225.16;5033439;28;893;-66
2021/06/12 06:05:05;;;;;;;;;;;;;;;24.99;60.00;101235.06;5033589;28;924;-66
2021/06/12 06:07:31;;;;;;;;;;;;;;;25.04;59.41;101232.19;5033221;28;926;-66
2021/06/12 06:09:57;;;;;;;;;;;;;;;25.03;58.53;101231.38;5033349;28;1287;-66
2021/06/12 06:12:23;;;;;;;;;;;;;;;25.09;57.78;101243.06;5032647;28;1874;-66
2021/06/12 06:14:48;;;;;;;;;;;;;;;24.96;57.62;101236.50;5033229;28;875;-66
2021/06/12 06:17:13;;;;;;;;;;;;;;;25.02;57.69;101246.28;5032981;28;1153;-66
2021/06/12 06:19:38;;;;;;;;;;;;;;;24.90;57.30;101246.81;5033162;28;889;-66
2021/06/12 06:22:04;;;;;;;;;;;;;;;24.81;56.94;101245.13;5032881;28;941;-66
2021/06/12 06:24:29;;;;;;;;;;;;;;;24.80;56.64;101243.50;5032723;28;892;-66
2021/06/12 06:26:54;;;;;;;;;;;;;;;24.76;56.06;101250.75;5032984;28;861;-66
2021/06/12 06:29:20;;;;;;;;;;;;;;;24.77;56.42;101242.19;5038200;28;1818;-66
2021/06/12 06:31:45;;;;;;;;;;;;;;;24.83;56.60;101240.94;5052189;28;1906;-66
2021/06/12 06:34:12;;;;;;;;;;;;;;;24.83;57.12;101251.13;5052284;28;1613;-66
2021/06/12 06:36:37;;;;;;;;;;;;;;;24.89;56.80;101242.44;5051632;28;1619;-66
2021/06/12 06:39:03;;;;;;;;;;;;;;;24.87;57.85;101241.94;5050025;28;1787;-68
2021/06/12 06:41:28;;;;;;;;;;;;;;;24.93;57.41;101234.34;5050925;28;1529;-66
2021/06/12 06:43:53;;;;;;;;;;;;;;;24.87;57.75;101239.19;5052437;28;1455;-66
2021/06/12 06:46:19;;;;;;;;;;;;;;;24.96;58.47;101235.69;5040231;28;2013;-66
2021/06/12 06:48:44;;;;;;;;;;;;;;;25.04;57.88;101232.19;5045008;28;2072;-67
2021/06/12 06:51:09;;;;;;;;;;;;;;;25.00;57.58;101237.50;5043676;28;1848;-66
2021/06/12 06:53:35;;;;;;;;;;;;;;;25.11;57.15;101240.81;5051314;28;1874;-66
2021/06/12 06:56:04;;;;;;;;;;;;;;;25.01;58.21;101239.16;5039502;28;886;-67
2021/06/12 06:58:29;;;;;;;;;;;;;;;25.00;57.84;101239.44;5039169;28;866;-71
2021/06/12 07:00:55;;;;;;;;;;;;;;;25.05;57.83;101234.63;5051714;28;848;-72
2021/06/12 07:03:20;;;;;;;;;;;;;;;24.98;57.48;101228.72;5049792;28;2118;-72
2021/06/12 07:05:46;;;;;;;;;;;;;;;24.93;56.54;101228.84;5040583;28;1374;-72
2021/06/12 07:08:11;;;;;;;;;;;;;;;25.06;57.70;101222.47;5052190;28;846;-70
2021/06/12 07:10:37;;;;;;;;;;;;;;;25.03;56.21;101228.63;5050120;28;1802;-72
2021/06/12 07:13:02;;;;;;;;;;;;;;;25.06;57.08;101225.22;5047190;28;1949;-71
2021/06/12 07:15:28;;;;;;;;;;;;;;;25.10;56.26;101230.94;5040588;28;1711;-71
2021/06/12 07:17:54;;;;;;;;;;;;;;;25.03;57.86;101231.38;5039768;28;1764;-71
2021/06/12 07:20:19;;;;;;;;;;;;;;;25.02;58.14;101231.69;5038510;28;2020;-71
2021/06/12 07:22:45;;;;;;;;;;;;;;;25.06;57.86;101235.44;5039561;28;1797;-71
2021/06/12 07:25:10;;;;;;;;;;;;;;;25.10;58.49;101236.44;5039886;28;1943;-71
2021/06/12 07:27:36;;;;;;;;;;;;;;;25.11;58.52;101238.06;5042605;28;1726;-71
2021/06/12 07:30:02;;;;;;;;;;;;;;;25.11;58.67;101238.91;5038709;28;1717;-71
2021/06/12 07:32:27;;;;;;;;;;;;;;;25.09;59.26;101241.16;5038164;28;1977;-71
2021/06/12 07:34:53;;;;;;;;;;;;;;;25.11;58.88;101240.81;5039703;28;1733;-71
2021/06/12 07:37:18;;;;;;;;;;;;;;;25.11;59.45;101247.16;5040859;28;1975;-71
2021/06/12 07:39:43;;;;;;;;;;;;;;;25.12;59.14;101243.25;5036429;28;1000;-71
2021/06/12 07:42:09;;;;;;;;;;;;;;;25.19;57.68;101258.56;5039715;28;937;-71
2021/06/12 07:44:34;;;;;;;;;;;;;;;25.14;55.99;101261.44;5051399;28;990;-71
2021/06/12 07:46:59;;;;;;;;;;;;;;;25.03;55.32;101253.44;5046343;28;1795;-71
2021/06/12 07:49:25;;;;;;;;;;;;;;;24.95;55.35;101256.09;5041223;28;1909;-71
2021/06/12 07:51:50;;;;;;;;;;;;;;;24.92;53.95;101252.03;5041425;28;2097;-71
2021/06/12 07:54:16;;;;;;;;;;;;;;;24.88;54.39;101262.03;5043714;28;2018;-71
2021/06/12 07:56:41;;;;;;;;;;;;;;;24.88;54.24;101260.09;5040506;28;1966;-70
2021/06/12 07:59:06;;;;;;;;;;;;;;;24.88;54.23;101257.34;5041775;28;2035;-71
2021/06/12 08:01:32;;;;;;;;;;;;;;;24.81;54.75;101256.13;5044783;28;1762;-71
2021/06/12 08:03:57;;;;;;;;;;;;;;;24.91;54.83;101255.91;5046718;28;1621;-71
2021/06/12 08:06:23;;;;;;;;;;;;;;;24.94;54.62;101246.22;5041213;28;1823;-71
2021/06/12 08:08:48;;;;;;;;;;;;;;;24.78;54.77;101257.56;5044874;28;1762;-71
2021/06/12 08:11:14;;;;;;;;;;;;;;;24.69;54.96;101252.00;5045391;28;1937;-71
2021/06/12 08:13:39;;;;;;;;;;;;;;;24.76;55.42;101257.06;5045144;28;2139;-71
2021/06/12 08:16:05;;;;;;;;;;;;;;;24.90;54.94;101244.06;5041671;28;1787;-71
2021/06/12 08:18:31;;;;;;;;;;;;;;;24.99;55.78;101251.59;5040822;28;1939;-71
2021/06/12 08:20:56;;;;;;;;;;;;;;;25.00;56.00;101251.28;5044387;28;1794;-71
2021/06/12 08:23:22;;;;;;;;;;;;;;;25.06;56.89;101247.28;5047288;28;1884;-68
2021/06/12 08:25:48;;;;;;;;;;;;;;;25.00;56.01;101245.78;5049324;28;1540;-68
2021/06/12 08:28:13;;;;;;;;;;;;;;;24.88;55.51;101242.75;5047587;28;1858;-68
2021/06/12 08:30:39;;;;;;;;;;;;;;;24.94;55.89;101244.25;5042897;28;1774;-68
2021/06/12 08:33:08;;;;;;;;;;;;;;;24.92;54.87;101243.75;5045135;28;1926;-68
2021/06/12 08:35:33;;;;;;;;;;;;;;;24.83;54.51;101240.94;5045539;28;1854;-68
2021/06/12 08:37:59;;;;;;;;;;;;;;;24.91;54.69;101242.13;5044575;28;1910;-68
2021/06/12 08:40:24;;;;;;;;;;;;;;;24.90;55.47;101241.31;5046941;28;1821;-68
2021/06/12 08:42:50;;;;;;;;;;;;;;;24.81;54.15;101240.44;5045178;28;1695;-68
2021/06/12 08:45:16;;;;;;;;;;;;;;;24.84;53.98;101239.00;5041260;28;1427;-68
2021/06/12 08:47:42;;;;;;;;;;;;;;;24.85;54.01;101241.44;5045612;28;1776;-68
2021/06/12 08:50:09;;;;;;;;;;;;;;;24.95;54.49;101245.91;5045366;28;1745;-69
2021/06/12 08:52:35;;;;;;;;;;;;;;;24.94;55.33;101236.00;5045741;28;1866;-69
2021/06/12 08:55:01;;;;;;;;;;;;;;;25.06;54.88;101241.75;5050439;28;2084;-70
2021/06/12 08:57:26;;;;;;;;;;;;;;;24.98;54.77;101236.19;5048315;28;2110;-69
2021/06/12 08:59:51;;;;;;;;;;;;;;;24.94;54.41;101230.47;5040465;28;845;-68
2021/06/12 09:02:17;;;;;;;;;;;;;;;25.02;57.34;101237.19;5038648;28;1828;-70
2021/06/12 09:04:45;;;;;;;;;;;;;;;25.21;55.53;101228.72;5044090;28;1670;-70
2021/06/12 09:07:18;;;;;;;;;;;;;;;25.10;56.26;101231.75;5042281;28;1864;-72
2021/06/12 09:09:43;;;;;;;;;;;;;;;25.36;54.25;101233.09;5046512;28;1944;-73
2021/06/12 09:12:08;;;;;;;;;;;;;;;25.29;56.57;101239.03;5045898;28;1925;-70
2021/06/12 09:14:34;;;;;;;;;;;;;;;25.40;54.69;101242.34;5042477;28;1870;-73
2021/06/12 09:16:59;;;;;;;;;;;;;;;25.33;52.46;101233.72;5043048;28;1862;-73
2021/06/12 09:19:25;;;;;;;;;;;;;;;25.41;51.88;101238.44;5044242;28;2111;-73
2021/06/12 09:21:55;;;;;;;;;;;;;;;25.38;54.62;101239.91;5046678;28;1772;-71
2021/06/12 09:24:26;;;;;;;;;;;;;;;25.45;55.75;101233.94;5047069;28;1956;-70
2021/06/12 09:26:58;;;;;;;;;;;;;;;25.42;53.35;101226.31;5049287;28;1991;-69
2021/06/12 09:29:44;;;;;;;;;;;;;;;25.38;51.99;101225.31;5054504;28;1385;-70
2021/06/12 09:32:09;;;;;;;;;;;;;;;25.39;51.94;101226.94;5051912;28;1934;-70
2021/06/12 09:34:35;;;;;;;;;;;;;;;25.42;52.42;101226.31;5055308;28;1591;-70
2021/06/12 09:37:08;;;;;;;;;;;;;;;25.35;52.34;101217.66;5054003;28;1623;-70
2021/06/12 09:39:33;;;;;;;;;;;;;;;25.55;52.28;101211.59;5049098;28;2118;-69
2021/06/12 09:41:59;;;;;;;;;;;;;;;25.63;52.27;101226.56;5051544;28;2099;-70
2021/06/12 09:44:29;;;;;;;;;;;;;;;25.61;52.28;101213.09;5055235;28;1457;-70
2021/06/12 09:46:54;;;;;;;;;;;;;;;25.54;52.75;101221.03;5054707;28;1569;-70
2021/06/12 09:49:28;;;;;;;;;;;;;;;25.48;53.12;101222.28;5053661;28;1859;-70
2021/06/12 09:52:10;;;;;;;;;;;;;;;25.49;52.90;101221.97;5053792;28;1933;-69
2021/06/12 09:54:39;;;;;;;;;;;;;;;25.51;52.78;101221.63;5049766;28;1829;-69
2021/06/12 09:57:05;;;;;;;;;;;;;;;25.61;52.30;101218.59;5050534;28;1860;-69
2021/06/12 09:59:46;;;;;;;;;;;;;;;25.52;52.46;101224.09;5048535;28;2853;-69
2021/06/12 10:02:11;;;;;;;;;;;;;;;25.56;51.61;101227.03;5051395;28;1859;-70
2021/06/12 10:04:54;;;;;;;;;;;;;;;25.61;51.26;101226.88;5048323;28;1770;-69
2021/06/12 10:07:20;;;;;;;;;;;;;;;25.51;51.62;101225.22;5049989;28;1795;-69
2021/06/12 10:09:45;;;;;;;;;;;;;;;25.58;50.33;101224.78;5050695;28;1458;-69
2021/06/12 10:12:11;;;;;;;;;;;;;;;25.61;51.70;101220.56;5051728;28;2049;-69
2021/06/12 10:14:37;;;;;;;;;;;;;;;25.62;51.24;101216.69;5052593;28;1651;-69
2021/06/12 10:17:02;;;;;;;;;;;;;;;25.51;52.28;101216.97;5048352;28;1864;-71
2021/06/12 10:19:27;;;;;;;;;;;;;;;25.60;52.31;101211.47;5045426;28;2056;-70
2021/06/12 10:21:53;;;;;;;;;;;;;;;25.67;52.63;101199.97;5051256;28;1702;-71
2021/06/12 10:24:19;;;;;;;;;;;;;;;25.73;53.14;101200.66;5052100;28;1676;-70
2021/06/12 10:26:44;;;;;;;;;;;;;;;25.77;52.62;101199.69;5052319;28;1724;-76
2021/06/12 10:29:10;;;;;;;;;;;;;;;25.82;52.58;101196.81;5052705;28;1841;-71
2021/06/12 10:31:40;;;;;;;;;;;;;;;25.66;52.49;101198.38;5052034;28;1600;-72
2021/06/12 10:34:06;;;;;;;;;;;;;;;25.63;50.88;101191.50;5049505;28;2013;-71
2021/06/12 10:36:33;;;;;;;;;;;;;;;25.65;52.19;101205.81;5049341;28;1711;-71
2021/06/12 10:38:59;;;;;;;;;;;;;;;25.68;50.92;101183.13;5051253;28;1491;-71
2021/06/12 10:41:26;;;;;;;;;;;;;;;25.66;52.55;101187.34;5041258;28;1951;-70
2021/06/12 10:43:53;;;;;;;;;;;;;;;25.76;51.18;101173.25;5043979;28;1788;-71
2021/06/12 10:46:21;;;;;;;;;;;;;;;25.73;51.45;101184.91;5047689;28;1800;-71
2021/06/12 10:48:53;;;;;;;;;;;;;;;25.78;50.71;101184.78;5045331;28;1971;-71
2021/06/12 10:51:25;;;;;;;;;;;;;;;25.66;51.16;101184.56;5050196;28;1989;-71
2021/06/12 10:54:08;;;;;;;;;;;;;;;25.80;50.60;101185.28;5049095;28;1941;-71
2021/06/12 10:56:41;;;;;;;;;;;;;;;25.78;50.98;101186.72;5046132;28;1945;-71
2021/06/12 10:59:06;;;;;;;;;;;;;;;25.67;51.99;101192.50;5044820;28;1811;-71
2021/06/12 11:01:32;;;;;;;;;;;;;;;25.76;51.62;101187.03;5042757;28;2001;-73
2021/06/12 11:06:31;;;;;;;;;;;;;;;25.63;52.10;101177.72;5050599;28;2089;-72
2021/06/12 11:09:29;;;;;;;;;;;;;;;25.66;52.56;101177.09;5045980;28;1855;-72
2021/06/12 11:11:56;;;;;;;;;;;;;;;25.76;51.35;101183.47;5026973;28;1945;-72
2021/06/12 11:14:21;;;;;;;;;;;;;;;25.71;52.46;101190.75;5041129;28;1784;-72
2021/06/12 11:17:06;;;;;;;;;;;;;;;25.77;52.48;101187.84;5050614;28;1383;-76
2021/06/12 11:19:35;;;;;;;;;;;;;;;25.68;52.72;101190.59;5043768;28;1806;-76
2021/06/12 11:22:19;;;;;;;;;;;;;;;25.74;52.94;101188.50;5045846;28;1764;-77
2021/06/12 11:24:44;;;;;;;;;;;;;;;25.71;52.95;101189.94;5075657;28;1812;-77
2021/06/12 11:27:29;;;;;;;;;;;;;;;25.82;53.55;101187.72;5047191;28;1530;-77
2021/06/12 11:30:11;;;;;;;;;;;;;;;25.82;53.25;101184.97;5047131;28;1826;-74
2021/06/12 11:32:37;;;;;;;;;;;;;;;25.78;54.26;101184.78;5045608;28;1913;-77
2021/06/12 11:35:03;;;;;;;;;;;;;;;25.79;54.35;101180.88;5047893;28;2118;-77
2021/06/12 11:37:29;;;;;;;;;;;;;;;25.82;54.50;101174.72;5050911;28;1204;-78
2021/06/12 11:39:57;;;;;;;;;;;;;;;25.86;54.21;101170.19;5053056;28;1484;-77
2021/06/12 11:42:24;;;;;;;;;;;;;;;25.74;52.35;101167.25;5050551;28;2108;-76
2021/06/12 11:44:49;;;;;;;;;;;;;;;25.68;52.09;101163.81;5041233;28;2238;-78
2021/06/12 11:47:24;;;;;;;;;;;;;;;25.65;53.06;101172.69;5046569;28;2078;-77
2021/06/12 11:49:50;;;;;;;;;;;;;;;25.49;53.85;101177.84;5042262;28;2000;-75
2021/06/12 11:52:15;;;;;;;;;;;;;;;25.59;54.17;101184.19;5047138;28;1937;-75
2021/06/12 11:55:03;;;;;;;;;;;;;;;25.59;53.72;101190.53;5043254;28;2087;-95
2021/06/12 11:57:38;;;;;;;;;;;;;;;25.66;52.33;101196.41;5031777;28;1779;-76
2021/06/12 12:00:04;;;;;;;;;;;;;;;25.74;52.50;101200.34;5047436;28;870;-77
2021/06/12 12:02:29;;;;;;;;;;;;;;;25.66;54.09;101207.44;5037281;28;1597;-76
2021/06/12 12:04:56;;;;;;;;;;;;;;;25.74;53.63;101218.84;5049393;28;1781;-75
2021/06/12 12:07:22;;;;;;;;;;;;;;;26.08;54.75;101219.00;5048337;28;1897;-67
2021/06/12 12:09:54;;;;;;;;;;;;;;;26.26;55.92;101214.34;5050867;28;1709;-70
2021/06/12 12:12:22;;;;;;;;;;;;;;;26.19;56.21;101221.47;5046586;28;1874;-71
2021/06/12 12:14:48;;;;;;;;;;;;;;;25.88;54.75;101223.13;5047800;28;1870;-70
2021/06/12 12:17:24;;;;;;;;;;;;;;;25.84;54.80;101224.09;5042812;28;2141;-70
2021/06/12 12:20:09;;;;;;;;;;;;;;;25.57;53.35;101216.81;5041899;28;1855;-70
2021/06/12 12:22:36;;;;;;;;;;;;;;;25.46;51.78;101205.25;5036653;28;1909;-70
2021/06/12 12:25:03;;;;;;;;;;;;;;;25.50;51.92;101200.72;5040253;28;863;-70
2021/06/12 12:27:28;;;;;;;;;;;;;;;25.51;51.58;101205.94;5030851;28;1738;-70
2021/06/12 12:29:53;;;;;;;;;;;;;;;25.61;52.27;101204.81;5039639;28;864;-70
2021/06/12 12:32:22;;;;;;;;;;;;;;;25.60;53.31;101208.72;5032322;28;1981;-70
2021/06/12 12:34:48;;;;;;;;;;;;;;;25.68;52.60;101216.22;5048026;28;1852;-70
2021/06/12 12:37:21;;;;;;;;;;;;;;;25.59;53.78;101225.56;5041250;28;2067;-70
2021/06/12 12:39:47;;;;;;;;;;;;;;;25.63;52.17;101221.84;5045002;28;1560;-70
2021/06/12 12:42:23;;;;;;;;;;;;;;;25.63;52.41;101219.09;5047014;28;1296;-70
2021/06/12 12:44:50;;;;;;;;;;;;;;;25.57;53.15;101219.56;5047700;28;1583;-70
2021/06/12 12:47:20;;;;;;;;;;;;;;;25.54;52.90;101220.22;5048698;28;1774;-70
2021/06/12 12:49:45;;;;;;;;;;;;;;;25.57;53.31;101214.84;5044502;28;1541;-70
2021/06/12 12:52:18;;;;;;;;;;;;;;;25.47;52.71;101204.09;5040101;28;2039;-70